Camarillo, CA

04:18 PST le 29 janvier 2015 (GMT -0800)
Camarillo | Change Station
CLOSE
Current Station
Aéroport
Location: Camarillo,
Altitude: 75 ft
Stations météo à proximité

Alt. 75 ft 34.21 °N, 119.09 °W | Updated 23 minutes ago

Nuageux
Nuageux
59 ° F
Paraît 59 ° F
N
6
Vent Variable Vent de Ouest

Aujourd'hui
Haut(e) -- | Bas -- ° F
--% Risque de précip.
Hier
Haut(e) -- | Bas -- ° F
Precip. -- pouce
6:55 AM 5:23 PM
Lune gibbeuse croissante, 74% visible
Pression 30.06 pouce
Visibilité 10.0 Miles terrestres
Nuages Ciel dégagé
Point de rosée 49 ° F
Humidité 69%
Précipitations 0.00 pouce
Profondeur de la couche neigeuse Non disponible.
UV 0 sur 12
Pollen 5.70 sur 12
Qualité de l'air Non disponible.
Flu Activity Non disponible.
METAR KCMA 291155Z 27005KT 10SM CLR 15/09 A3004 RMK AO2 SLP180 T01500094 10200 20150 58001

More Conditions Fewer Conditions

Pression 30.06 pouce
Visibilité 10.0 Miles terrestres
Nuages Ciel dégagé
Point de rosée 49 ° F
Humidité 69%
Précipitations 0.00 pouce
Profondeur de la couche neigeuse Non disponible.
UV 0 sur 12
Pollen 5.70 sur 12
Qualité de l'air Non disponible.
Flu Activity Non disponible.
METAR KCMA 291155Z 27005KT 10SM CLR 15/09 A3004 RMK AO2 SLP180 T01500094 10200 20150 58001

More Conditions Fewer Conditions

10-Day Weather Forecast

Almanac

Astronomie

Jan. 29, 2015 Lever Coucher
Temps réel
Crépuscule civil
Crépuscule nautique
Crépuscule astronomique
Lune
Durée de lumière visible
Longueur du jour
Tomorrow will be .
, % of the Moon is Illuminated

Extrêmes aujourd'hui

State Highs State Lows

Community

WunderPhotos

Upload Photos

1,791,418 Photos téléchargées !

WunderBlogs® & News

Nearby

Qualité de l'air

  Qualité de l'air Indice de la qualité de l'air Polluant
Not available.

Épaisseur de neige

Station Depth Altitude

Activité sismique

Ville Distance Mag. Time & Date
Minimum magnitude displayed is 2.5.

Températures des eaux côtières

Lieu Température

Stations météo à proximité